This is the latest recevied weather packets stored in our database for station/object EA1IDU-11. If no packets are shown the sender has not sent any weather packets the latest 10 day(s).
| Time | Temp. | Humidity | Pressure | Rain* | Wind** | Luminosity | Snow |
|---|---|---|---|---|---|---|---|
| 1777723059 | 17.22° C | 48% | 1025.1 hPa | - | - | - | - |
| 1777722159 | 17.22° C | 47% | 1025.2 hPa | - | - | - | - |
| 1777721259 | 18.33° C | 45% | 1025.5 hPa | - | - | - | - |
| 1777720359 | 21.67° C | 43% | 1024.9 hPa | - | - | - | - |
| 1777719459 | 22.78° C | 42% | 1024.3 hPa | - | - | - | - |
| 1777718559 | 22.78° C | 42% | 1024.4 hPa | - | - | - | - |
| 1777717659 | 22.78° C | 43% | 1024.8 hPa | - | - | - | - |
| 1777716759 | 22.22° C | 44% | 1025.1 hPa | - | - | - | - |
| 1777715858 | 22.22° C | 45% | 1025.3 hPa | - | - | - | - |
| 1777714958 | 22.22° C | 45% | 1025.3 hPa | - | - | - | - |
| 1777714058 | 21.67° C | 47% | 1025.4 hPa | - | - | - | - |
| 1777713158 | 21.11° C | 48% | 1025.3 hPa | - | - | - | - |
| 1777712258 | 20.56° C | 47% | 1025.5 hPa | - | - | - | - |
| 1777711358 | 20.56° C | 47% | 1025.8 hPa | - | - | - | - |
| 1777710458 | 21.11° C | 47% | 1025.7 hPa | - | - | - | - |
| 1777709558 | 21.67° C | 46% | 1025.6 hPa | - | - | - | - |
| 1777708658 | 21.11° C | 48% | 1025.4 hPa | - | - | - | - |
| 1777707758 | 20° C | 49% | 1025.5 hPa | - | - | - | - |
| 1777706857 | 18.89° C | 49% | 1025.6 hPa | - | - | - | - |
| 1777705957 | 18.33° C | 49% | 1025.5 hPa | - | - | - | - |
| 1777705057 | 17.78° C | 49% | 1025.6 hPa | - | - | - | - |
| 1777704157 | 17.78° C | 49% | 1025.5 hPa | - | - | - | - |
| 1777703257 | 17.78° C | 49% | 1025.5 hPa | - | - | - | - |
| 1777702357 | 17.22° C | 49% | 1025.5 hPa | - | - | - | - |
| 1777701457 | 17.22° C | 49% | 1025.5 hPa | - | - | - | - |
* Rain since midnight (hover to see other rain measurements)
** Current wind speed in m/s (hover to see current wind gust speed)